createdAt,value
2022-08-03T00:01:30.270Z,20.60
2022-08-03T00:04:33.896Z,20.50
2022-08-03T00:07:36.024Z,20.40
2022-08-03T00:10:38.124Z,20.30
2022-08-03T00:13:39.900Z,20.20
2022-08-03T00:16:41.635Z,20.10
2022-08-03T00:19:43.264Z,20.00
2022-08-03T00:22:44.851Z,19.90
2022-08-03T00:25:46.443Z,19.80
2022-08-03T00:28:48.741Z,19.70
2022-08-03T00:31:59.221Z,19.60
2022-08-03T00:35:08.310Z,19.50
2022-08-03T00:38:11.467Z,19.50
2022-08-03T00:41:13.079Z,19.40
2022-08-03T00:44:17.364Z,19.50
2022-08-03T00:47:18.967Z,19.40
2022-08-03T00:50:22.936Z,19.30
2022-08-03T00:53:24.667Z,19.30
2022-08-03T00:56:26.956Z,19.20
2022-08-03T00:59:30.250Z,19.10
2022-08-03T01:02:32.098Z,19.10
2022-08-03T01:05:58.708Z,19.00
2022-08-03T01:09:12.132Z,18.80
2022-08-03T01:12:31.151Z,18.80
2022-08-03T01:16:20.428Z,18.70
2022-08-03T01:19:43.072Z,18.70
2022-08-03T01:23:06.363Z,18.60
2022-08-03T01:26:32.644Z,18.50
2022-08-03T01:29:58.998Z,18.50
2022-08-03T01:33:05.144Z,18.50
2022-08-03T01:36:14.473Z,18.50
2022-08-03T01:39:17.263Z,18.50
2022-08-03T01:42:20.896Z,18.50
2022-08-03T01:45:23.202Z,18.50
2022-08-03T01:48:27.253Z,18.60
2022-08-03T01:52:03.332Z,18.60
2022-08-03T01:54:53.271Z,18.60
2022-08-03T01:58:05.268Z,18.60
2022-08-03T02:01:10.183Z,18.60
2022-08-03T02:04:14.613Z,18.50
2022-08-03T02:07:17.026Z,18.60
2022-08-03T02:10:34.361Z,18.40
2022-08-03T02:13:38.158Z,18.30
2022-08-03T02:16:40.731Z,18.30
2022-08-03T02:19:43.219Z,18.40
2022-08-03T02:22:45.980Z,18.40
2022-08-03T02:25:57.322Z,18.40
2022-08-03T02:29:05.603Z,18.30
2022-08-03T02:32:10.420Z,18.30
2022-08-03T02:35:15.082Z,18.20
2022-08-03T02:38:20.117Z,18.20
2022-08-03T02:41:27.806Z,18.20
2022-08-03T02:44:34.396Z,18.20
2022-08-03T02:47:53.313Z,18.10
2022-08-03T02:50:58.282Z,18.10
2022-08-03T02:54:03.675Z,18.00
2022-08-03T02:57:07.801Z,18.10
2022-08-03T03:00:10.231Z,18.00
2022-08-03T03:03:12.500Z,18.00
2022-08-03T03:06:15.652Z,18.00
2022-08-03T03:09:21.671Z,18.00
2022-08-03T03:12:24.531Z,18.00
2022-08-03T03:15:27.805Z,17.90
2022-08-03T03:18:32.068Z,17.90
2022-08-03T03:21:35.248Z,17.80
2022-08-03T03:24:37.797Z,17.70
2022-08-03T03:27:40.464Z,17.70
2022-08-03T03:30:42.790Z,17.70
2022-08-03T03:33:44.635Z,17.60
2022-08-03T03:36:47.348Z,17.50
2022-08-03T03:39:48.932Z,17.50
2022-08-03T03:42:50.877Z,17.50
2022-08-03T03:45:53.640Z,17.50
2022-08-03T03:48:55.396Z,17.50
2022-08-03T03:51:58.085Z,17.60
2022-08-03T03:55:01.252Z,17.50
2022-08-03T03:58:04.066Z,17.40
2022-08-03T04:01:06.331Z,17.40
2022-08-03T04:04:26.826Z,17.30
2022-08-03T04:07:55.728Z,17.30
2022-08-03T04:11:03.186Z,17.30
2022-08-03T04:14:16.566Z,17.40
2022-08-03T04:17:19.552Z,17.40
2022-08-03T04:20:22.747Z,17.60
2022-08-03T04:23:27.864Z,17.70
2022-08-03T04:26:33.663Z,17.80
2022-08-03T04:29:38.717Z,18.00
2022-08-03T04:32:51.867Z,18.20
2022-08-03T04:36:02.301Z,18.40
2022-08-03T04:39:08.471Z,18.70
2022-08-03T04:42:13.535Z,18.90
2022-08-03T04:45:16.456Z,19.00
2022-08-03T04:48:20.050Z,19.30
2022-08-03T04:51:21.867Z,19.40
2022-08-03T04:54:23.494Z,19.50
2022-08-03T04:57:25.107Z,19.70
2022-08-03T05:00:27.458Z,20.00
2022-08-03T05:03:29.119Z,20.30
2022-08-03T05:06:30.854Z,20.20
2022-08-03T05:09:50.081Z,20.40
2022-08-03T05:12:54.075Z,20.30
2022-08-03T05:15:55.690Z,20.30
2022-08-03T05:18:57.323Z,20.40
2022-08-03T05:21:59.471Z,20.40
2022-08-03T05:25:01.795Z,20.20
2022-08-03T05:28:03.666Z,19.90
2022-08-03T05:31:05.589Z,19.70
2022-08-03T05:34:07.257Z,19.50
2022-08-03T05:37:09.282Z,19.50
2022-08-03T05:40:11.614Z,19.50
2022-08-03T05:43:13.203Z,19.80
2022-08-03T05:46:14.842Z,20.00
2022-08-03T05:49:16.551Z,20.20
2022-08-03T05:52:18.304Z,20.00
2022-08-03T05:55:20.155Z,20.10
2022-08-03T05:58:21.957Z,20.10
2022-08-03T06:01:23.561Z,20.40
2022-08-03T06:04:25.302Z,20.30
2022-08-03T06:07:27.022Z,20.40
2022-08-03T06:10:36.190Z,20.60
2022-08-03T06:13:39.718Z,21.00
2022-08-03T06:16:41.348Z,21.40
2022-08-03T06:19:43.028Z,21.60
2022-08-03T06:22:50.833Z,21.80
2022-08-03T06:26:03.059Z,22.00
2022-08-03T06:29:04.660Z,22.10
2022-08-03T06:32:10.170Z,22.30
2022-08-03T06:35:11.944Z,22.70
2022-08-03T06:38:13.580Z,22.80
2022-08-03T06:41:15.260Z,22.70
2022-08-03T06:44:16.962Z,22.80
2022-08-03T06:47:18.563Z,22.70
2022-08-03T06:50:24.242Z,22.80
2022-08-03T06:53:27.739Z,22.90
2022-08-03T06:56:29.541Z,23.00
2022-08-03T07:00:10.584Z,23.30
2022-08-03T07:02:57.759Z,23.70
2022-08-03T07:06:00.382Z,23.80
2022-08-03T07:09:02.635Z,24.10
2022-08-03T07:12:06.466Z,24.20
2022-08-03T07:15:08.939Z,24.40
2022-08-03T07:18:24.442Z,24.60
2022-08-03T07:21:31.300Z,24.80
2022-08-03T07:24:32.895Z,24.90
2022-08-03T07:27:34.606Z,25.00
2022-08-03T07:30:36.285Z,25.10
2022-08-03T07:33:37.892Z,25.20
2022-08-03T07:36:39.550Z,25.40
2022-08-03T07:39:41.184Z,25.50
2022-08-03T07:42:42.768Z,25.60
2022-08-03T07:45:44.486Z,25.60
2022-08-03T07:48:46.127Z,25.70
2022-08-03T07:52:07.874Z,26.10
2022-08-03T07:55:10.538Z,26.20
2022-08-03T07:58:17.227Z,26.40
2022-08-03T08:01:21.748Z,26.70
2022-08-03T08:04:23.386Z,26.90
2022-08-03T08:07:25.989Z,27.00
2022-08-03T08:10:28.182Z,27.30
2022-08-03T08:13:29.800Z,27.40
2022-08-03T08:16:31.428Z,27.50
2022-08-03T08:19:34.523Z,27.50
2022-08-03T08:22:40.637Z,27.60
2022-08-03T08:25:42.904Z,27.80
2022-08-03T08:28:44.552Z,27.90
2022-08-03T08:31:46.248Z,27.80
2022-08-03T08:34:47.854Z,27.90
2022-08-03T08:37:50.991Z,28.10
2022-08-03T08:40:56.233Z,28.30
2022-08-03T08:44:00.238Z,28.50
2022-08-03T08:47:03.889Z,28.60
2022-08-03T08:50:27.417Z,28.70
2022-08-03T08:53:32.676Z,28.50
2022-08-03T08:56:36.952Z,28.70
2022-08-03T08:59:48.481Z,28.90
2022-08-03T09:02:51.770Z,29.00
2022-08-03T09:05:56.160Z,29.20
2022-08-03T09:08:58.247Z,29.10
2022-08-03T09:12:14.582Z,29.30
2022-08-03T09:15:21.702Z,29.30
2022-08-03T09:18:32.930Z,29.40
2022-08-03T09:21:35.096Z,29.50
2022-08-03T09:24:41.420Z,29.70
2022-08-03T09:27:44.947Z,29.80
2022-08-03T09:30:59.119Z,29.90
2022-08-03T09:34:06.334Z,30.10
2022-08-03T09:37:16.288Z,30.20
2022-08-03T09:40:36.235Z,30.40
2022-08-03T09:43:46.729Z,30.60
2022-08-03T09:46:53.454Z,30.70
2022-08-03T09:50:02.081Z,30.70
2022-08-03T09:53:03.905Z,30.60
2022-08-03T09:56:34.219Z,30.60
2022-08-03T09:59:29.505Z,30.70
2022-08-03T10:02:31.313Z,30.70
2022-08-03T10:05:33.243Z,30.80
2022-08-03T10:08:34.844Z,31.00
2022-08-03T10:11:41.817Z,31.00
2022-08-03T10:14:45.621Z,30.90
2022-08-03T10:17:47.280Z,30.90
2022-08-03T10:21:03.146Z,30.70
2022-08-03T10:24:07.859Z,30.80
2022-08-03T10:27:11.265Z,30.80
2022-08-03T10:30:13.576Z,31.00
2022-08-03T10:33:49.782Z,31.00
2022-08-03T10:36:45.362Z,31.30
2022-08-03T10:39:53.644Z,31.60
2022-08-03T10:43:00.955Z,31.80
2022-08-03T10:46:05.059Z,31.90
2022-08-03T10:49:07.578Z,31.70
2022-08-03T10:52:13.687Z,32.00
2022-08-03T10:55:52.201Z,32.00
2022-08-03T10:58:57.862Z,32.00
2022-08-03T11:02:01.054Z,32.00
2022-08-03T11:05:26.486Z,32.10
2022-08-03T11:08:31.292Z,32.10
2022-08-03T11:11:33.093Z,32.00
2022-08-03T11:14:47.143Z,32.00
2022-08-03T11:18:11.442Z,32.10
2022-08-03T11:21:13.280Z,32.40
2022-08-03T11:24:36.451Z,32.50
2022-08-03T11:27:38.736Z,32.60
2022-08-03T11:30:41.214Z,32.50
2022-08-03T11:34:02.787Z,32.60
2022-08-03T11:37:24.612Z,33.00
2022-08-03T11:40:39.530Z,33.10
2022-08-03T11:43:44.102Z,33.00
2022-08-03T11:46:45.763Z,33.20
2022-08-03T11:49:48.568Z,33.20
2022-08-03T11:52:51.031Z,33.40
2022-08-03T11:55:53.828Z,33.60
2022-08-03T11:59:18.194Z,33.70
2022-08-03T12:02:19.568Z,33.70
2022-08-03T12:05:21.196Z,33.50
2022-08-03T12:08:32.271Z,33.40
2022-08-03T12:11:34.071Z,33.70
2022-08-03T12:14:50.946Z,33.90
2022-08-03T12:17:57.685Z,34.20
2022-08-03T12:21:11.770Z,34.40
2022-08-03T12:24:13.466Z,34.30
2022-08-03T12:27:26.393Z,34.20
2022-08-03T12:30:28.088Z,34.10
2022-08-03T12:33:29.990Z,33.90
2022-08-03T12:36:34.374Z,33.80
2022-08-03T12:39:36.275Z,34.00
2022-08-03T12:42:57.997Z,33.90
2022-08-03T12:46:14.327Z,33.80
2022-08-03T12:49:18.655Z,34.20
2022-08-03T12:52:22.725Z,34.30
2022-08-03T12:55:25.248Z,34.60
2022-08-03T12:58:35.561Z,34.70
2022-08-03T13:01:37.871Z,34.70
2022-08-03T13:04:56.819Z,34.70
2022-08-03T13:07:58.872Z,34.80
2022-08-03T13:11:20.966Z,34.60
2022-08-03T13:14:23.714Z,34.60
2022-08-03T13:17:26.656Z,34.60
2022-08-03T13:20:28.558Z,34.90
2022-08-03T13:23:30.195Z,35.20
2022-08-03T13:26:31.921Z,35.20
2022-08-03T13:29:34.648Z,35.00
2022-08-03T13:32:36.642Z,35.20
2022-08-03T13:35:38.284Z,35.30
2022-08-03T13:38:40.022Z,35.50
2022-08-03T13:41:41.852Z,35.70
2022-08-03T13:44:43.456Z,35.80
2022-08-03T13:47:45.067Z,35.90
2022-08-03T13:50:46.657Z,36.10
2022-08-03T13:53:48.259Z,36.20
2022-08-03T13:56:52.773Z,36.10
2022-08-03T13:59:54.817Z,35.90
2022-08-03T14:03:05.239Z,35.80
2022-08-03T14:06:11.105Z,35.70
2022-08-03T14:09:18.003Z,35.80
2022-08-03T14:12:20.016Z,36.10
2022-08-03T14:15:22.702Z,36.10
2022-08-03T14:18:28.652Z,35.90
2022-08-03T14:21:35.582Z,35.90
2022-08-03T14:24:40.314Z,35.70
2022-08-03T14:27:41.934Z,35.70
2022-08-03T14:30:43.590Z,35.80
2022-08-03T14:33:45.357Z,35.80
2022-08-03T14:36:47.139Z,36.00
2022-08-03T14:40:04.475Z,36.30
2022-08-03T14:43:06.348Z,36.50
2022-08-03T14:46:08.001Z,36.60
2022-08-03T14:50:35.017Z,36.30
2022-08-03T14:52:32.578Z,36.30
2022-08-03T14:55:38.207Z,36.10
2022-08-03T14:58:40.738Z,36.40
2022-08-03T15:02:05.134Z,36.40
2022-08-03T15:05:04.155Z,36.50
2022-08-03T15:08:09.202Z,36.80
2022-08-03T15:11:11.369Z,36.50
2022-08-03T15:14:13.584Z,36.50
2022-08-03T15:17:16.515Z,36.70
2022-08-03T15:20:25.468Z,36.70
2022-08-03T15:23:30.674Z,36.60
2022-08-03T15:26:35.416Z,36.60
2022-08-03T15:30:09.386Z,36.10
2022-08-03T15:33:03.029Z,36.30
2022-08-03T15:36:04.960Z,36.40
2022-08-03T15:39:06.852Z,36.30
2022-08-03T15:42:08.522Z,36.30
2022-08-03T15:45:11.210Z,36.60
2022-08-03T15:48:14.479Z,36.60
2022-08-03T15:51:16.464Z,36.80
2022-08-03T15:54:18.087Z,37.30
2022-08-03T15:57:20.448Z,37.50
2022-08-03T16:00:33.173Z,37.40
2022-08-03T16:03:35.769Z,37.70
2022-08-03T16:06:37.534Z,38.20
2022-08-03T16:09:43.421Z,38.20
2022-08-03T16:12:46.016Z,38.40
2022-08-03T16:15:47.985Z,38.70
2022-08-03T16:18:49.655Z,38.50
2022-08-03T16:21:51.239Z,38.70
2022-08-03T16:24:54.485Z,39.10
2022-08-03T16:27:58.151Z,39.30
2022-08-03T16:31:09.378Z,39.20
2022-08-03T16:34:11.058Z,38.90
2022-08-03T16:37:36.925Z,38.60
2022-08-03T16:40:35.042Z,38.80
2022-08-03T16:43:36.670Z,38.90
2022-08-03T16:46:41.536Z,39.10
2022-08-03T16:49:54.748Z,39.40
2022-08-03T16:52:57.873Z,39.50
2022-08-03T16:55:59.993Z,39.50
2022-08-03T16:59:01.747Z,40.00
2022-08-03T17:02:10.191Z,40.50
2022-08-03T17:05:12.771Z,40.30
2022-08-03T17:08:16.434Z,40.70
2022-08-03T17:11:28.070Z,40.80
2022-08-03T17:14:31.597Z,40.70
2022-08-03T17:17:47.426Z,40.90
2022-08-03T17:20:56.509Z,40.70
2022-08-03T17:24:12.562Z,40.70
2022-08-03T17:28:41.969Z,40.60
2022-08-03T17:30:57.395Z,40.40
2022-08-03T17:34:04.339Z,40.20
2022-08-03T17:37:06.532Z,39.90
2022-08-03T17:40:28.752Z,39.80
2022-08-03T17:44:13.678Z,39.60
2022-08-03T17:46:55.465Z,39.40
2022-08-03T17:50:00.200Z,39.40
2022-08-03T17:53:15.513Z,39.30
2022-08-03T17:57:22.396Z,39.60
2022-08-03T18:01:01.453Z,39.70
2022-08-03T18:04:11.054Z,39.90
2022-08-03T18:07:41.458Z,39.60
2022-08-03T18:10:49.623Z,39.30
2022-08-03T18:14:16.495Z,38.50
2022-08-03T18:17:26.250Z,38.00
2022-08-03T18:20:48.535Z,37.60
2022-08-03T18:23:52.076Z,37.00
2022-08-03T18:26:54.628Z,36.50
2022-08-03T18:29:58.275Z,36.00
2022-08-03T18:34:19.465Z,35.60
2022-08-03T18:36:30.378Z,35.20
2022-08-03T18:39:34.823Z,34.70
2022-08-03T18:42:54.722Z,34.30
2022-08-03T18:46:00.996Z,34.10
2022-08-03T18:49:31.378Z,33.80
2022-08-03T18:52:45.878Z,33.50
2022-08-03T18:56:42.385Z,33.20
2022-08-03T18:59:54.804Z,32.80
2022-08-03T19:03:09.169Z,32.70
2022-08-03T19:06:19.975Z,32.50
2022-08-03T19:09:47.861Z,32.30
2022-08-03T19:12:51.334Z,32.10
2022-08-03T19:15:56.461Z,31.80
2022-08-03T19:19:00.679Z,31.60
2022-08-03T19:22:05.348Z,31.40
2022-08-03T19:25:12.115Z,31.20
2022-08-03T19:28:15.914Z,30.90
2022-08-03T19:31:21.368Z,30.60
2022-08-03T19:34:34.351Z,30.40
2022-08-03T19:37:40.089Z,30.30
2022-08-03T19:40:50.959Z,30.10
2022-08-03T19:44:00.222Z,30.00
2022-08-03T19:47:11.046Z,29.90
2022-08-03T19:50:20.410Z,29.70
2022-08-03T19:53:23.830Z,29.70
2022-08-03T19:56:47.860Z,29.60
2022-08-03T19:59:50.791Z,29.50
2022-08-03T20:02:52.771Z,29.30
2022-08-03T20:05:55.086Z,29.20
2022-08-03T20:08:57.542Z,29.00
2022-08-03T20:12:00.414Z,28.80
2022-08-03T20:15:03.410Z,28.70
2022-08-03T20:18:05.258Z,28.50
2022-08-03T20:21:19.213Z,28.40
2022-08-03T20:24:29.307Z,28.30
2022-08-03T20:28:06.906Z,28.20
2022-08-03T20:31:06.821Z,28.10
2022-08-03T20:34:09.199Z,28.00
2022-08-03T20:37:12.175Z,27.90
2022-08-03T20:40:13.934Z,27.90
2022-08-03T20:43:16.883Z,27.80
2022-08-03T20:46:32.187Z,27.70
2022-08-03T20:49:45.640Z,27.50
2022-08-03T20:52:50.542Z,27.40
2022-08-03T20:56:02.087Z,27.30
2022-08-03T20:59:06.014Z,27.20
2022-08-03T21:02:09.197Z,27.20
2022-08-03T21:05:11.624Z,27.10
2022-08-03T21:08:16.883Z,27.00
2022-08-03T21:11:24.903Z,26.90
2022-08-03T21:14:37.016Z,26.70
2022-08-03T21:17:49.572Z,26.50
2022-08-03T21:20:51.639Z,26.50
2022-08-03T21:23:55.536Z,26.50
2022-08-03T21:26:57.675Z,26.40
2022-08-03T21:30:02.980Z,26.40
2022-08-03T21:33:06.848Z,26.30
2022-08-03T21:36:08.892Z,26.30
2022-08-03T21:39:11.162Z,26.20
2022-08-03T21:42:13.753Z,26.20
2022-08-03T21:45:17.733Z,26.10
2022-08-03T21:48:21.453Z,26.20
2022-08-03T21:51:26.643Z,26.10
2022-08-03T21:54:37.079Z,25.90
2022-08-03T21:57:41.939Z,25.80
2022-08-03T22:00:44.404Z,25.70
2022-08-03T22:03:53.901Z,25.60
2022-08-03T22:06:56.022Z,25.50
2022-08-03T22:10:00.084Z,25.40
2022-08-03T22:13:01.807Z,25.40
2022-08-03T22:16:03.755Z,25.40
2022-08-03T22:19:05.404Z,25.40
2022-08-03T22:22:13.585Z,25.40
2022-08-03T22:25:16.362Z,25.30
2022-08-03T22:28:18.995Z,25.20
2022-08-03T22:31:56.886Z,25.20
2022-08-03T22:34:45.403Z,25.00
2022-08-03T22:37:49.536Z,25.00
2022-08-03T22:40:52.365Z,24.90
2022-08-03T22:43:54.442Z,24.90
2022-08-03T22:46:56.396Z,24.80
2022-08-03T22:50:31.608Z,24.80
2022-08-03T22:53:21.898Z,24.60
2022-08-03T22:56:23.590Z,24.60
2022-08-03T22:59:40.159Z,24.60
2022-08-03T23:02:48.296Z,24.50
2022-08-03T23:06:02.060Z,24.40
2022-08-03T23:09:10.652Z,24.30
2022-08-03T23:12:19.331Z,24.30
2022-08-03T23:15:21.170Z,24.20
2022-08-03T23:18:24.036Z,24.20
2022-08-03T23:21:53.148Z,24.20
2022-08-03T23:24:51.716Z,24.10
2022-08-03T23:28:05.715Z,24.00
2022-08-03T23:31:08.374Z,24.00
2022-08-03T23:34:45.860Z,23.90
2022-08-03T23:38:21.566Z,23.80
2022-08-03T23:41:13.310Z,23.80
2022-08-03T23:44:16.473Z,23.80
2022-08-03T23:47:18.088Z,23.70
2022-08-03T23:50:19.813Z,23.60
2022-08-03T23:53:39.993Z,23.50
2022-08-03T23:56:59.785Z,23.40
